Time;durP1;ratioP1;P1;durP2;ratioP2;P2;SDS_P1;SDS_P2;PMS_P1;PMS_P2;Temp;Humidity;BMP_temperature;BMP_pressure;BME280_temperature;BME280_humidity;BME280_pressure;Samples;Min_cycle;Max_cycle;Signal;HPM_P1;HPM_P2
2022/10/26 00:00:29;;;;;;;4.10;2.90;;;11.50;99.90;;;;;;5075370;28;20182;-82
2022/10/26 00:02:55;;;;;;;3.23;2.90;;;11.50;99.90;;;;;;5067523;28;20186;-81
2022/10/26 00:05:22;;;;;;;2.60;2.40;;;11.50;99.90;;;;;;5076203;28;20594;-85
2022/10/26 00:07:49;;;;;;;2.67;2.47;;;11.60;99.90;;;;;;5084529;28;20189;-83
2022/10/26 00:10:14;;;;;;;2.93;2.60;;;11.60;99.90;;;;;;5061731;28;20175;-89
2022/10/26 00:12:40;;;;;;;2.87;2.67;;;11.60;99.90;;;;;;5076381;28;20751;-93
2022/10/26 00:15:07;;;;;;;2.77;2.57;;;11.50;99.90;;;;;;5064785;28;20177;-87
2022/10/26 00:17:33;;;;;;;3.20;2.50;;;11.50;99.90;;;;;;5092926;28;20180;-82
2022/10/26 00:19:59;;;;;;;4.33;2.47;;;11.50;99.90;;;;;;5088670;28;20218;-87
2022/10/26 00:22:26;;;;;;;4.00;2.30;;;11.50;99.90;;;;;;5060670;28;20538;-85
2022/10/26 00:24:52;;;;;;;2.80;2.53;;;11.40;99.90;;;;;;5076165;28;20598;-89
2022/10/26 00:27:17;;;;;;;2.73;2.53;;;11.30;99.90;;;;;;5075505;28;20176;-92
2022/10/26 00:29:43;;;;;;;3.00;2.63;;;11.30;99.90;;;;;;5080948;28;20731;-92
2022/10/26 00:32:09;;;;;;;2.80;2.33;;;11.40;99.90;;;;;;5064149;28;20209;-92
2022/10/26 00:34:35;;;;;;;2.30;2.20;;;11.30;99.90;;;;;;5075026;28;20176;-92
2022/10/26 00:37:01;;;;;;;2.43;2.23;;;11.40;99.90;;;;;;5075163;28;20177;-93
2022/10/26 00:39:27;;;;;;;2.60;2.40;;;11.30;99.90;;;;;;5074753;28;20628;-89
2022/10/26 00:41:53;;;;;;;3.60;2.40;;;11.30;99.90;;;;;;5078059;28;20531;-85
2022/10/26 00:44:46;;;;;;;2.30;2.10;;;11.20;99.90;;;;;;5082268;28;20167;-86
2022/10/26 00:47:38;;;;;;;2.30;2.10;;;11.20;99.90;;;;;;5074404;28;20179;-84
2022/10/26 00:50:39;;;;;;;2.47;2.30;;;11.10;99.90;;;;;;5074468;28;20175;-91
2022/10/26 00:53:06;;;;;;;2.13;2.03;;;11.10;99.90;;;;;;5074346;28;20252;-91
2022/10/26 00:55:36;;;;;;;2.90;2.20;;;11.20;99.90;;;;;;5059079;28;20186;-87
2022/10/26 00:58:07;;;;;;;3.23;2.23;;;11.20;99.90;;;;;;5084473;28;20186;-85
2022/10/26 01:00:33;;;;;;;2.60;2.40;;;11.10;99.90;;;;;;5074764;28;20164;-87
2022/10/26 01:03:04;;;;;;;2.33;2.23;;;11.00;99.90;;;;;;5057126;28;20179;-86
2022/10/26 01:05:32;;;;;;;2.50;2.40;;;11.00;99.90;;;;;;5074583;28;20250;-84
2022/10/26 01:07:58;;;;;;;2.20;2.10;;;11.00;99.90;;;;;;5055806;28;20178;-85
2022/10/26 01:10:24;;;;;;;3.67;2.57;;;11.00;99.90;;;;;;5073887;28;20256;-90
2022/10/26 01:12:51;;;;;;;2.40;2.20;;;10.90;99.90;;;;;;5073981;28;20206;-87
2022/10/26 01:15:17;;;;;;;2.10;2.00;;;10.90;99.90;;;;;;5073809;28;20167;-90
2022/10/26 01:18:00;;;;;;;3.13;2.93;;;10.90;99.90;;;;;;5073523;28;20232;-87
2022/10/26 01:20:48;;;;;;;2.47;2.37;;;10.90;99.90;;;;;;5073564;28;20191;-83
2022/10/26 01:23:23;;;;;;;2.53;2.30;;;10.90;99.90;;;;;;5073332;28;20246;-83
2022/10/26 01:26:17;;;;;;;2.43;2.20;;;11.00;99.90;;;;;;5055864;28;20163;-83
2022/10/26 01:29:16;;;;;;;2.73;2.43;;;10.90;99.90;;;;;;5087667;28;20177;-87
2022/10/26 01:32:10;;;;;;;2.87;2.50;;;10.90;99.90;;;;;;5089230;28;20195;-82
2022/10/26 01:34:46;;;;;;;3.03;2.63;;;10.80;99.90;;;;;;5074871;28;20171;-85
2022/10/26 01:37:24;;;;;;;4.37;2.13;;;10.80;99.90;;;;;;5054381;28;20181;-81
2022/10/26 01:40:09;;;;;;;3.13;2.30;;;10.70;99.90;;;;;;5072601;28;20614;-85
2022/10/26 01:42:41;;;;;;;4.07;2.50;;;10.70;99.90;;;;;;5054990;28;20175;-83
2022/10/26 01:45:08;;;;;;;2.97;2.23;;;10.70;99.90;;;;;;5073180;28;20171;-85
2022/10/26 01:47:36;;;;;;;2.73;2.27;;;10.70;99.90;;;;;;5055481;28;20699;-82
2022/10/26 01:50:04;;;;;;;2.47;2.27;;;10.70;99.90;;;;;;5073289;28;20179;-85
2022/10/26 01:52:30;;;;;;;2.13;2.03;;;10.70;99.90;;;;;;5074760;28;20230;-81
2022/10/26 01:55:25;;;;;;;4.20;2.30;;;10.70;99.90;;;;;;5073863;28;20167;-81
2022/10/26 01:57:53;;;;;;;2.17;2.07;;;10.80;99.90;;;;;;5078668;28;20182;-81
2022/10/26 02:00:18;;;;;;;2.27;2.10;;;10.80;99.90;;;;;;5080408;28;20198;-88
2022/10/26 02:03:21;;;;;;;2.80;2.33;;;10.80;99.90;;;;;;5056633;28;20179;-94
2022/10/26 02:06:16;;;;;;;2.20;2.10;;;10.60;99.90;;;;;;5074973;28;20261;-94
2022/10/26 02:09:00;;;;;;;3.20;3.00;;;10.70;99.90;;;;;;5092546;28;20175;-92
2022/10/26 02:11:41;;;;;;;3.30;3.10;;;10.60;99.90;;;;;;5101653;28;20209;-92
2022/10/26 02:14:17;;;;;;;3.40;3.10;;;10.60;99.90;;;;;;5064319;28;20162;-91
2022/10/26 02:16:57;;;;;;;2.77;2.57;;;10.50;99.90;;;;;;5078733;28;20160;-92
2022/10/26 02:19:42;;;;;;;2.60;2.40;;;10.50;99.90;;;;;;5077993;28;20171;-93
2022/10/26 02:22:20;;;;;;;2.50;2.40;;;10.60;99.90;;;;;;5082919;28;20593;-89
2022/10/26 02:24:49;;;;;;;4.40;2.80;;;10.60;99.90;;;;;;5078288;28;20156;-93
2022/10/26 02:27:23;;;;;;;2.70;2.50;;;10.60;99.90;;;;;;5060077;28;20202;-93
2022/10/26 02:29:52;;;;;;;2.93;2.30;;;10.50;99.90;;;;;;5091032;28;20162;-93
2022/10/26 02:32:20;;;;;;;3.47;2.60;;;10.50;99.90;;;;;;5085369;28;20352;-93
2022/10/26 02:34:48;;;;;;;2.63;2.43;;;10.50;99.90;;;;;;5077491;28;20174;-92
2022/10/26 02:37:17;;;;;;;3.63;3.30;;;10.40;99.90;;;;;;5077227;28;20178;-92
2022/10/26 02:39:46;;;;;;;3.13;2.93;;;10.40;99.90;;;;;;5059328;28;20542;-93
2022/10/26 02:42:14;;;;;;;3.03;2.83;;;10.40;99.90;;;;;;5080697;28;20204;-88
2022/10/26 02:45:03;;;;;;;3.00;2.80;;;10.50;99.90;;;;;;5081077;28;20177;-92
2022/10/26 02:47:29;;;;;;;3.60;3.30;;;10.50;99.90;;;;;;5077444;28;20168;-94
2022/10/26 02:49:55;;;;;;;3.50;3.20;;;10.40;99.90;;;;;;5077490;28;20171;-94
2022/10/26 02:52:29;;;;;;;4.80;3.47;;;10.40;99.90;;;;;;5077540;28;20236;-93
2022/10/26 02:55:17;;;;;;;3.90;3.53;;;10.40;99.90;;;;;;5059590;28;20166;-94
2022/10/26 02:57:46;;;;;;;3.20;3.00;;;10.40;99.90;;;;;;5077383;28;20163;-94
2022/10/26 03:00:15;;;;;;;3.27;2.97;;;10.30;99.90;;;;;;5060051;28;20541;-93
2022/10/26 03:02:43;;;;;;;3.50;3.30;;;10.30;99.90;;;;;;5094034;28;20162;-89
2022/10/26 03:05:43;;;;;;;6.03;3.23;;;10.30;99.90;;;;;;5099886;28;20190;-93
2022/10/26 03:08:09;;;;;;;3.50;3.30;;;10.30;99.90;;;;;;5090003;28;20174;-90
2022/10/26 03:10:43;;;;;;;3.20;3.00;;;10.20;99.90;;;;;;5084281;28;20189;-93
2022/10/26 03:13:10;;;;;;;3.50;3.30;;;10.20;99.90;;;;;;5077910;28;20198;-93
2022/10/26 03:15:36;;;;;;;3.13;2.83;;;10.20;99.90;;;;;;5077763;28;20186;-94
2022/10/26 03:18:03;;;;;;;3.00;2.90;;;10.10;99.90;;;;;;5077494;28;20179;-87
2022/10/26 03:20:29;;;;;;;3.20;3.00;;;10.10;99.90;;;;;;5075280;28;20171;-89
2022/10/26 03:22:55;;;;;;;3.00;2.80;;;10.10;99.90;;;;;;5076049;28;20189;-87
2022/10/26 03:25:22;;;;;;;3.17;2.97;;;10.10;99.90;;;;;;5075898;28;20174;-84
2022/10/26 03:27:59;;;;;;;2.80;2.70;;;10.10;99.90;;;;;;5075809;28;20179;-89
2022/10/26 03:30:26;;;;;;;3.07;2.57;;;10.10;99.90;;;;;;5075645;28;20585;-82
2022/10/26 03:32:52;;;;;;;3.10;2.90;;;10.10;99.90;;;;;;5075303;28;20235;-83
2022/10/26 03:35:17;;;;;;;3.20;3.00;;;10.10;99.90;;;;;;5074038;28;20271;-82
2022/10/26 03:37:43;;;;;;;2.60;2.50;;;10.00;99.90;;;;;;5076681;28;20188;-83
2022/10/26 03:40:10;;;;;;;2.70;2.60;;;9.90;99.90;;;;;;5077645;28;20177;-81
2022/10/26 03:42:36;;;;;;;2.57;2.47;;;9.90;99.90;;;;;;5077146;28;20178;-80
2022/10/26 03:45:03;;;;;;;3.97;2.40;;;10.00;99.90;;;;;;5075748;28;20185;-81
2022/10/26 03:47:29;;;;;;;2.80;2.57;;;10.00;99.90;;;;;;5080385;28;20193;-85
2022/10/26 03:49:54;;;;;;;2.40;2.30;;;9.90;99.90;;;;;;5094660;28;20178;-93
2022/10/26 03:52:20;;;;;;;3.10;2.90;;;9.90;99.90;;;;;;5089309;28;20286;-90
2022/10/26 03:54:46;;;;;;;2.67;2.53;;;9.90;99.90;;;;;;5082003;28;20175;-93
2022/10/26 03:57:12;;;;;;;3.20;2.90;;;9.90;99.90;;;;;;5088962;28;20187;-90
2022/10/26 03:59:37;;;;;;;2.83;2.63;;;10.00;99.90;;;;;;5095463;28;20242;-85
2022/10/26 04:02:03;;;;;;;3.40;2.90;;;10.00;99.90;;;;;;5098158;28;20194;-85
2022/10/26 04:04:29;;;;;;;2.73;2.63;;;9.90;99.90;;;;;;5087383;28;20186;-91
2022/10/26 04:06:54;;;;;;;2.60;2.50;;;10.00;99.90;;;;;;5083269;28;20242;-88
2022/10/26 04:09:20;;;;;;;2.80;2.60;;;9.90;99.90;;;;;;5076454;28;20205;-91
2022/10/26 04:11:46;;;;;;;2.80;2.60;;;10.00;99.90;;;;;;5075436;28;20760;-90
2022/10/26 04:14:12;;;;;;;2.80;2.60;;;9.90;99.90;;;;;;5075286;28;20202;-87
2022/10/26 04:16:37;;;;;;;3.30;3.10;;;10.00;99.90;;;;;;5075341;28;20699;-82
2022/10/26 04:19:03;;;;;;;3.47;2.97;;;10.00;99.90;;;;;;5075241;28;20207;-89
2022/10/26 04:21:31;;;;;;;3.10;2.90;;;10.00;99.90;;;;;;5076774;28;20680;-93
2022/10/26 04:23:57;;;;;;;3.20;2.90;;;9.90;99.90;;;;;;5076853;28;20714;-93
2022/10/26 04:26:23;;;;;;;2.90;2.80;;;10.00;99.90;;;;;;5075016;28;20182;-91
2022/10/26 04:28:49;;;;;;;3.03;2.83;;;10.00;99.90;;;;;;5075483;28;20183;-93
2022/10/26 04:31:15;;;;;;;4.77;4.33;;;10.00;99.90;;;;;;5074270;28;20265;-88
2022/10/26 04:33:40;;;;;;;2.70;2.60;;;10.00;99.90;;;;;;5074143;28;20281;-92
2022/10/26 04:36:07;;;;;;;2.90;2.70;;;10.00;99.90;;;;;;5075138;28;20643;-88
2022/10/26 04:38:32;;;;;;;2.90;2.63;;;10.00;99.90;;;;;;5075211;28;20179;-87
2022/10/26 04:40:58;;;;;;;3.73;2.70;;;10.00;99.90;;;;;;5078157;28;20182;-93
2022/10/26 04:43:24;;;;;;;2.97;2.70;;;10.00;99.90;;;;;;5089903;28;20179;-85
2022/10/26 04:45:53;;;;;;;2.90;2.80;;;9.90;99.90;;;;;;5091677;28;20182;-90
2022/10/26 04:48:19;;;;;;;2.90;2.70;;;10.00;99.90;;;;;;5078903;28;20660;-93
2022/10/26 04:50:45;;;;;;;3.93;3.50;;;10.00;99.90;;;;;;5075409;28;20177;-91
2022/10/26 04:53:10;;;;;;;3.63;3.43;;;10.10;99.90;;;;;;5058201;28;20290;-81
2022/10/26 04:55:36;;;;;;;3.93;3.57;;;10.00;99.90;;;;;;5063248;28;20189;-93
2022/10/26 04:58:02;;;;;;;4.27;3.97;;;10.00;99.90;;;;;;5054722;28;20206;-91
2022/10/26 05:00:31;;;;;;;3.70;3.43;;;10.00;99.90;;;;;;5054358;28;20171;-89
2022/10/26 05:03:01;;;;;;;3.70;3.50;;;10.00;99.90;;;;;;5053174;28;20230;-90
2022/10/26 05:05:29;;;;;;;4.00;3.80;;;10.10;99.90;;;;;;5054249;28;20676;-89
2022/10/26 05:07:56;;;;;;;3.93;3.63;;;10.10;99.90;;;;;;5054135;28;20175;-89
2022/10/26 05:10:22;;;;;;;4.67;4.27;;;10.10;99.90;;;;;;5054184;28;20198;-88
2022/10/26 05:12:52;;;;;;;3.93;3.67;;;10.10;99.90;;;;;;5053825;28;20214;-88
2022/10/26 05:15:18;;;;;;;3.40;3.10;;;10.20;99.90;;;;;;5058955;28;20206;-81
2022/10/26 05:17:43;;;;;;;3.23;3.10;;;10.30;99.90;;;;;;5060812;28;20178;-86
2022/10/26 05:20:12;;;;;;;3.30;3.10;;;10.20;99.90;;;;;;5058109;28;20631;-85
2022/10/26 05:22:40;;;;;;;3.33;3.13;;;10.30;99.90;;;;;;5052818;28;20196;-83
2022/10/26 05:25:06;;;;;;;3.30;3.10;;;10.30;99.90;;;;;;5054086;28;20623;-83
2022/10/26 05:27:31;;;;;;;3.50;3.30;;;10.40;99.90;;;;;;5057564;28;20186;-82
2022/10/26 05:29:57;;;;;;;3.30;3.10;;;10.40;99.90;;;;;;5055000;28;20631;-81
2022/10/26 05:32:23;;;;;;;3.77;3.47;;;10.50;99.90;;;;;;5051779;28;20213;-81
2022/10/26 05:34:49;;;;;;;3.20;3.00;;;10.50;99.90;;;;;;5054002;28;20176;-84
2022/10/26 05:37:14;;;;;;;4.00;3.60;;;10.50;99.90;;;;;;5058491;28;20574;-84
2022/10/26 05:39:42;;;;;;;3.67;3.47;;;10.50;99.90;;;;;;5064181;28;20206;-80
2022/10/26 05:42:08;;;;;;;3.40;3.20;;;10.50;99.90;;;;;;5059807;28;20192;-83
2022/10/26 05:44:33;;;;;;;3.50;3.20;;;10.50;99.90;;;;;;5055171;28;20171;-84
2022/10/26 05:46:59;;;;;;;3.17;2.80;;;10.50;99.90;;;;;;5054395;28;20181;-86
2022/10/26 05:49:25;;;;;;;3.33;2.90;;;10.60;99.90;;;;;;5054655;28;20213;-88
2022/10/26 05:51:50;;;;;;;2.90;2.70;;;10.60;99.90;;;;;;5078597;28;20260;-81
2022/10/26 05:54:17;;;;;;;3.10;2.90;;;10.60;99.90;;;;;;5092571;28;20292;-80
2022/10/26 05:56:43;;;;;;;2.87;2.67;;;10.60;99.90;;;;;;5086874;28;20179;-79
2022/10/26 05:59:14;;;;;;;3.73;3.40;;;10.60;99.90;;;;;;5076834;28;20636;-89
2022/10/26 06:01:46;;;;;;;3.47;3.17;;;10.60;99.90;;;;;;5075128;28;20214;-92
2022/10/26 06:04:36;;;;;;;3.17;2.97;;;10.60;99.90;;;;;;5073444;28;20203;-87
2022/10/26 06:07:02;;;;;;;3.43;3.13;;;10.60;99.90;;;;;;5074034;28;20163;-93
2022/10/26 06:09:28;;;;;;;3.40;3.20;;;10.60;99.90;;;;;;5074006;28;20189;-92
2022/10/26 06:11:54;;;;;;;3.40;3.20;;;10.70;99.90;;;;;;5073461;28;20221;-94
2022/10/26 06:14:20;;;;;;;3.87;3.30;;;10.70;99.90;;;;;;5074497;28;20668;-93
2022/10/26 06:16:56;;;;;;;4.30;3.70;;;10.80;99.90;;;;;;5075487;28;20564;-92
2022/10/26 06:19:47;;;;;;;3.90;3.60;;;10.80;99.90;;;;;;5084546;28;20266;-93
2022/10/26 06:22:31;;;;;;;4.63;3.63;;;10.80;99.90;;;;;;5087568;28;20184;-83
2022/10/26 06:25:06;;;;;;;4.83;4.07;;;10.90;99.90;;;;;;5076518;28;20171;-86
2022/10/26 06:27:57;;;;;;;4.47;4.20;;;10.90;99.90;;;;;;5075130;28;20163;-86
2022/10/26 06:30:23;;;;;;;6.67;4.83;;;11.00;99.90;;;;;;5073442;28;20171;-88
2022/10/26 06:32:54;;;;;;;4.90;4.50;;;11.00;99.90;;;;;;5054837;28;20244;-91
2022/10/26 06:35:44;;;;;;;4.43;4.13;;;11.00;99.90;;;;;;5072299;28;20177;-85
2022/10/26 06:38:19;;;;;;;4.23;3.80;;;11.10;99.90;;;;;;5073064;28;20162;-84
2022/10/26 06:40:49;;;;;;;3.90;3.60;;;11.20;99.90;;;;;;5073969;28;20232;-81
2022/10/26 06:43:28;;;;;;;3.70;3.40;;;11.30;99.90;;;;;;5072841;28;20162;-92
2022/10/26 06:46:40;;;;;;;3.57;3.27;;;11.40;99.90;;;;;;5073334;28;20178;-85
2022/10/26 06:49:18;;;;;;;3.27;3.07;;;11.50;99.90;;;;;;5064083;28;20183;-87
2022/10/26 06:51:55;;;;;;;3.47;3.03;;;11.50;99.90;;;;;;5075016;28;20257;-91
2022/10/26 06:54:53;;;;;;;3.00;2.80;;;11.50;99.90;;;;;;5075047;28;20182;-85
2022/10/26 06:57:21;;;;;;;3.40;3.10;;;11.50;99.90;;;;;;5077783;28;20183;-93
2022/10/26 06:59:56;;;;;;;3.20;2.90;;;11.50;99.90;;;;;;5077379;28;20676;-91
2022/10/26 07:02:23;;;;;;;3.17;2.97;;;11.50;99.90;;;;;;5077010;28;20153;-91
2022/10/26 07:04:48;;;;;;;3.17;2.97;;;11.60;99.90;;;;;;5076786;28;20215;-91
2022/10/26 07:07:20;;;;;;;2.80;2.70;;;11.50;99.90;;;;;;5059457;28;20244;-89
2022/10/26 07:09:49;;;;;;;3.33;3.13;;;11.60;99.90;;;;;;5076981;28;20168;-91
2022/10/26 07:12:15;;;;;;;3.60;3.30;;;11.70;99.90;;;;;;5062588;28;20299;-85
2022/10/26 07:14:41;;;;;;;3.43;3.23;;;11.70;99.90;;;;;;5080161;28;20645;-81
2022/10/26 07:17:08;;;;;;;3.87;3.57;;;11.80;99.90;;;;;;5060809;28;20538;-81
2022/10/26 07:19:34;;;;;;;3.60;3.33;;;11.80;99.90;;;;;;5076224;28;20619;-82
2022/10/26 07:22:00;;;;;;;3.30;3.10;;;11.80;99.90;;;;;;5076280;28;20192;-82
2022/10/26 07:24:26;;;;;;;3.80;3.50;;;11.90;99.90;;;;;;5075785;28;20173;-85
2022/10/26 07:26:58;;;;;;;3.40;3.20;;;12.00;99.90;;;;;;5086897;28;20210;-87
2022/10/26 07:29:25;;;;;;;3.57;3.30;;;12.00;99.90;;;;;;5080959;28;20175;-90
2022/10/26 07:31:52;;;;;;;3.93;3.53;;;12.10;99.90;;;;;;5078309;28;20229;-87
2022/10/26 07:34:17;;;;;;;3.60;3.30;;;12.00;99.90;;;;;;5076652;28;20633;-91
2022/10/26 07:36:43;;;;;;;3.10;2.90;;;12.10;99.90;;;;;;5058873;28;20179;-93
2022/10/26 07:39:09;;;;;;;3.70;3.50;;;12.00;99.90;;;;;;5077517;28;20169;-86
2022/10/26 07:41:35;;;;;;;3.53;3.33;;;12.10;99.90;;;;;;5079635;28;20171;-84
2022/10/26 07:44:01;;;;;;;4.40;4.00;;;12.10;99.90;;;;;;5073143;28;20171;-88
2022/10/26 07:46:28;;;;;;;3.80;3.50;;;12.20;99.90;;;;;;5095110;28;20179;-89
2022/10/26 07:48:53;;;;;;;4.33;3.97;;;12.30;99.90;;;;;;5084348;28;20568;-89
2022/10/26 07:51:19;;;;;;;4.77;4.37;;;12.30;99.90;;;;;;5087381;28;20229;-86
2022/10/26 07:53:47;;;;;;;5.53;5.10;;;12.30;99.90;;;;;;5092594;28;20184;-86
2022/10/26 07:56:13;;;;;;;4.60;4.20;;;12.30;99.90;;;;;;5071575;28;20196;-82
2022/10/26 07:58:39;;;;;;;4.80;3.57;;;12.40;99.90;;;;;;5088943;28;20217;-80
2022/10/26 08:01:10;;;;;;;5.47;3.93;;;12.40;99.90;;;;;;5077326;28;20167;-81
2022/10/26 08:03:36;;;;;;;3.97;3.67;;;12.50;99.90;;;;;;5078585;28;20167;-81
2022/10/26 08:06:03;;;;;;;3.90;3.60;;;12.60;99.90;;;;;;5080656;28;20190;-90
2022/10/26 08:08:30;;;;;;;4.73;3.93;;;12.60;99.90;;;;;;5078327;28;20246;-86
2022/10/26 08:10:57;;;;;;;3.70;3.50;;;12.70;99.90;;;;;;5076065;28;20178;-89
2022/10/26 08:13:23;;;;;;;5.30;3.63;;;12.70;99.90;;;;;;5075591;28;20181;-90
2022/10/26 08:15:49;;;;;;;4.00;3.60;;;12.80;99.90;;;;;;5074670;28;20170;-93
2022/10/26 08:18:15;;;;;;;3.93;3.70;;;12.80;99.90;;;;;;5074918;28;20629;-91
2022/10/26 08:20:41;;;;;;;3.80;3.60;;;12.90;99.90;;;;;;5075279;28;20263;-92
2022/10/26 08:23:07;;;;;;;4.23;3.83;;;13.00;99.90;;;;;;5075295;28;20214;-87
2022/10/26 08:25:33;;;;;;;3.97;3.67;;;13.10;99.90;;;;;;5074832;28;20186;-87
2022/10/26 08:28:03;;;;;;;3.80;3.50;;;13.20;99.90;;;;;;5074955;28;20171;-90
2022/10/26 08:30:29;;;;;;;3.77;3.47;;;13.20;99.90;;;;;;5074792;28;20179;-92
2022/10/26 08:33:00;;;;;;;3.80;3.50;;;13.20;99.90;;;;;;5074600;28;20202;-92
2022/10/26 08:35:26;;;;;;;4.03;3.73;;;13.20;99.90;;;;;;5074269;28;20163;-88
2022/10/26 08:37:52;;;;;;;4.20;3.80;;;13.20;99.90;;;;;;5074495;28;20653;-88
2022/10/26 08:40:23;;;;;;;3.40;3.10;;;13.20;99.90;;;;;;5074837;28;20163;-89
2022/10/26 08:42:53;;;;;;;3.80;3.50;;;13.20;99.90;;;;;;5057082;28;20164;-93
2022/10/26 08:45:27;;;;;;;4.47;4.17;;;13.20;99.90;;;;;;5074321;28;20176;-90
2022/10/26 08:48:00;;;;;;;4.50;4.20;;;13.20;99.90;;;;;;5056776;28;20243;-89
2022/10/26 08:50:51;;;;;;;4.03;3.70;;;13.30;99.90;;;;;;5056515;28;20224;-85
2022/10/26 08:53:32;;;;;;;5.10;4.27;;;13.30;99.90;;;;;;5074801;28;20603;-85
2022/10/26 08:56:25;;;;;;;4.50;4.10;;;13.40;99.90;;;;;;5078322;28;20190;-89
2022/10/26 08:58:56;;;;;;;5.60;4.13;;;13.50;99.90;;;;;;5067762;28;20246;-87
2022/10/26 09:01:22;;;;;;;4.60;4.30;;;13.70;99.90;;;;;;5072542;28;20167;-81
2022/10/26 09:03:48;;;;;;;6.20;3.90;;;13.80;99.90;;;;;;5061818;28;20253;-81
2022/10/26 09:06:20;;;;;;;4.77;4.37;;;13.90;99.90;;;;;;5058901;28;20658;-82
2022/10/26 09:09:07;;;;;;;5.27;4.50;;;14.00;99.90;;;;;;5037755;28;20642;-84
2022/10/26 09:11:45;;;;;;;6.97;4.13;;;14.10;99.90;;;;;;5055540;28;20577;-86
2022/10/26 09:14:34;;;;;;;5.70;4.53;;;14.20;99.90;;;;;;5056107;28;20179;-82
2022/10/26 09:17:09;;;;;;;6.77;5.73;;;14.20;99.90;;;;;;5075941;28;20155;-88
2022/10/26 09:19:53;;;;;;;6.93;5.03;;;14.30;99.90;;;;;;5064713;28;20167;-91
2022/10/26 09:23:06;;;;;;;4.13;3.83;;;14.20;99.90;;;;;;5078991;28;20164;-88
2022/10/26 09:25:40;;;;;;;6.33;4.20;;;14.20;99.90;;;;;;4991718;28;20197;-93
2022/10/26 09:28:16;;;;;;;6.20;4.17;;;14.30;99.90;;;;;;5081115;28;20205;-94
2022/10/26 09:30:46;;;;;;;3.80;3.50;;;14.30;99.90;;;;;;5079595;28;20175;-95
2022/10/26 09:33:19;;;;;;;6.23;4.23;;;14.40;99.90;;;;;;5085207;28;20207;-87
2022/10/26 09:35:50;;;;;;;5.77;3.97;;;14.40;99.90;;;;;;5077992;28;20189;-90
2022/10/26 09:38:39;;;;;;;4.37;3.97;;;14.40;99.90;;;;;;5098009;28;20160;-90
2022/10/26 09:41:23;;;;;;;4.67;4.27;;;14.60;99.90;;;;;;5090835;28;20614;-92
2022/10/26 09:44:07;;;;;;;4.73;4.30;;;14.80;99.90;;;;;;5044765;28;20176;-93
2022/10/26 09:47:04;;;;;;;4.30;3.90;;;15.00;99.90;;;;;;5082508;28;20181;-93
2022/10/26 09:49:48;;;;;;;5.03;4.53;;;15.10;99.90;;;;;;5067086;28;20208;-89
2022/10/26 09:52:15;;;;;;;4.33;3.93;;;15.20;99.90;;;;;;5057286;28;20237;-95
2022/10/26 09:54:41;;;;;;;5.43;4.10;;;15.30;99.90;;;;;;5055276;28;20207;-92
2022/10/26 09:57:08;;;;;;;4.40;4.00;;;15.40;99.90;;;;;;5054657;28;20172;-91
2022/10/26 09:59:39;;;;;;;5.00;4.20;;;15.40;99.90;;;;;;5056670;28;20176;-95
2022/10/26 10:02:38;;;;;;;4.40;4.00;;;15.40;99.90;;;;;;5057463;28;20158;-95
2022/10/26 10:05:21;;;;;;;4.50;4.20;;;15.40;99.90;;;;;;4979277;28;20284;-93
2022/10/26 10:07:47;;;;;;;4.60;4.20;;;15.40;99.90;;;;;;4995242;28;20275;-96
2022/10/26 10:10:19;;;;;;;4.10;3.80;;;15.30;99.90;;;;;;4993031;28;20668;-96
2022/10/26 10:12:46;;;;;;;5.23;4.30;;;15.20;99.90;;;;;;4993714;28;20308;-92
2022/10/26 10:15:20;;;;;;;4.37;4.07;;;15.10;99.90;;;;;;4993087;28;20272;-93
2022/10/26 10:17:56;;;;;;;4.33;4.03;;;15.10;99.90;;;;;;4977343;28;20183;-89
2022/10/26 10:20:30;;;;;;;4.60;4.20;;;15.00;99.90;;;;;;4993971;28;20214;-94
2022/10/26 10:22:58;;;;;;;4.83;3.87;;;15.00;99.90;;;;;;4993105;28;20232;-87
2022/10/26 10:25:35;;;;;;;4.07;3.77;;;15.00;99.90;;;;;;4992562;28;20245;-89
2022/10/26 10:28:18;;;;;;;7.47;6.60;;;15.00;99.90;;;;;;4994388;28;20192;-91
2022/10/26 10:30:52;;;;;;;5.33;4.63;;;15.00;99.90;;;;;;4996446;28;20199;-85
2022/10/26 10:33:18;;;;;;;4.67;4.27;;;15.00;99.90;;;;;;4996355;28;20194;-88
2022/10/26 10:35:50;;;;;;;4.30;3.90;;;15.00;99.90;;;;;;4996206;28;20590;-88
2022/10/26 10:38:19;;;;;;;5.30;3.90;;;15.00;99.90;;;;;;5003840;28;20182;-93
2022/10/26 10:40:55;;;;;;;4.43;4.07;;;15.10;99.90;;;;;;5015706;28;20206;-86
2022/10/26 10:43:21;;;;;;;3.73;3.43;;;15.20;99.90;;;;;;5060739;28;20159;-92
2022/10/26 10:45:53;;;;;;;4.93;3.97;;;15.30;99.90;;;;;;5057861;28;20267;-91
2022/10/26 10:48:25;;;;;;;4.30;3.90;;;15.50;99.90;;;;;;5057042;28;20615;-86
2022/10/26 10:51:11;;;;;;;3.50;3.30;;;15.60;99.90;;;;;;5067828;28;20164;-85
2022/10/26 10:53:49;;;;;;;3.33;3.03;;;15.90;99.90;;;;;;5066140;28;20234;-84
2022/10/26 10:56:21;;;;;;;3.83;3.40;;;16.20;99.90;;;;;;5079223;28;20533;-86
2022/10/26 10:59:04;;;;;;;3.47;3.20;;;16.30;99.90;;;;;;5081373;28;20219;-81
2022/10/26 11:01:43;;;;;;;6.53;5.00;;;16.30;99.90;;;;;;5078441;28;20174;-85
2022/10/26 11:04:09;;;;;;;5.27;4.20;;;16.40;99.90;;;;;;5077167;28;20163;-81
2022/10/26 11:06:37;;;;;;;3.50;3.30;;;16.60;99.90;;;;;;5061602;28;20217;-85
2022/10/26 11:09:17;;;;;;;3.70;3.40;;;16.70;99.90;;;;;;5061750;28;20194;-90
2022/10/26 11:12:05;;;;;;;4.33;3.20;;;16.80;99.90;;;;;;5088111;28;20203;-91
2022/10/26 11:14:41;;;;;;;3.33;3.03;;;16.90;99.90;;;;;;5092142;28;20259;-85
2022/10/26 11:17:21;;;;;;;3.77;3.47;;;17.00;99.90;;;;;;5084338;28;20676;-93
2022/10/26 11:19:56;;;;;;;3.07;2.83;;;17.10;99.90;;;;;;5078490;28;20209;-93
2022/10/26 11:22:35;;;;;;;3.03;2.73;;;17.20;99.90;;;;;;5077482;28;20167;-93
2022/10/26 11:25:24;;;;;;;3.00;2.80;;;17.30;99.90;;;;;;5077834;28;20170;-93
2022/10/26 11:28:01;;;;;;;2.67;2.47;;;17.40;99.90;;;;;;5064078;28;20185;-90
2022/10/26 11:30:29;;;;;;;3.97;2.93;;;17.50;99.90;;;;;;5074968;28;20163;-91
2022/10/26 11:33:18;;;;;;;2.83;2.63;;;17.50;99.90;;;;;;5099962;28;20191;-82
2022/10/26 11:35:54;;;;;;;2.87;2.67;;;17.60;99.90;;;;;;5084338;28;20301;-92
2022/10/26 11:38:39;;;;;;;5.50;5.00;;;17.60;99.90;;;;;;5078293;28;20163;-91
2022/10/26 11:41:11;;;;;;;4.00;3.70;;;17.70;99.90;;;;;;5076346;28;20170;-87
2022/10/26 11:43:44;;;;;;;4.33;3.43;;;17.70;99.90;;;;;;5078017;28;20182;-92
2022/10/26 11:46:56;;;;;;;3.20;2.90;;;17.70;99.90;;;;;;5088658;28;20155;-90
2022/10/26 11:49:40;;;;;;;3.40;3.20;;;17.80;99.90;;;;;;5044308;28;20179;-91
2022/10/26 11:52:18;;;;;;;3.80;3.40;;;18.00;99.90;;;;;;5075957;28;20219;-88
2022/10/26 11:54:54;;;;;;;3.03;2.83;;;18.00;99.90;;;;;;5076177;28;20170;-88
2022/10/26 11:57:24;;;;;;;3.17;2.83;;;17.90;99.90;;;;;;5073958;28;20198;-90
2022/10/26 12:00:01;;;;;;;3.50;3.13;;;17.90;99.90;;;;;;5075230;28;20634;-91
2022/10/26 12:02:27;;;;;;;3.10;2.90;;;18.00;99.90;;;;;;5075427;28;20163;-92
2022/10/26 12:05:14;;;;;;;3.10;2.80;;;18.00;99.90;;;;;;5075457;28;20256;-87
2022/10/26 12:07:44;;;;;;;2.93;2.80;;;17.90;99.90;;;;;;5075121;28;20516;-91
2022/10/26 12:10:23;;;;;;;2.70;2.53;;;17.90;99.90;;;;;;5074326;28;20179;-86
2022/10/26 12:13:06;;;;;;;3.67;3.37;;;17.80;99.90;;;;;;5075676;28;20206;-92
2022/10/26 12:15:52;;;;;;;4.50;3.00;;;17.90;99.90;;;;;;5074403;28;20171;-91
2022/10/26 12:18:30;;;;;;;3.07;2.87;;;17.90;99.90;;;;;;5080639;28;20167;-86
2022/10/26 12:21:05;;;;;;;2.90;2.70;;;17.90;99.90;;;;;;5077525;28;20220;-92
2022/10/26 12:23:36;;;;;;;3.53;2.90;;;17.90;99.90;;;;;;5074315;28;20253;-91
2022/10/26 12:26:22;;;;;;;3.10;2.90;;;17.90;99.90;;;;;;5075161;28;20177;-83
2022/10/26 12:28:48;;;;;;;2.83;2.53;;;17.90;99.90;;;;;;5060922;28;20587;-89
2022/10/26 12:31:35;;;;;;;3.00;2.80;;;17.80;99.90;;;;;;5075189;28;20175;-90
2022/10/26 12:34:13;;;;;;;2.60;2.50;;;17.80;99.90;;;;;;5075467;28;20167;-89
2022/10/26 12:36:54;;;;;;;2.80;2.60;;;17.70;99.90;;;;;;5074835;28;20185;-85
2022/10/26 12:39:36;;;;;;;3.20;3.00;;;17.80;99.90;;;;;;5075778;28;20638;-84
2022/10/26 12:42:05;;;;;;;3.33;3.00;;;17.80;99.90;;;;;;5081287;28;20205;-82
2022/10/26 12:44:39;;;;;;;3.30;3.10;;;17.80;99.90;;;;;;5077409;28;20232;-84
2022/10/26 12:47:07;;;;;;;3.30;3.00;;;17.80;99.90;;;;;;5058100;28;20182;-81
2022/10/26 12:50:07;;;;;;;7.67;5.33;;;17.90;99.90;;;;;;5076136;28;20203;-92
2022/10/26 12:52:50;;;;;;;3.97;3.67;;;17.90;99.90;;;;;;5084379;28;20313;-80
2022/10/26 12:55:19;;;;;;;3.93;3.53;;;18.00;99.90;;;;;;5077666;28;20216;-79
2022/10/26 12:58:05;;;;;;;7.73;3.50;;;18.00;99.90;;;;;;5075535;28;20254;-86
2022/10/26 13:00:33;;;;;;;5.77;3.50;;;18.10;99.90;;;;;;5055761;28;20549;-85
2022/10/26 13:03:20;;;;;;;5.50;4.90;;;18.10;99.90;;;;;;5073161;28;20913;-92
2022/10/26 13:06:24;;;;;;;3.60;3.30;;;18.10;99.90;;;;;;5074459;28;20603;-85
2022/10/26 13:08:53;;;;;;;3.60;3.30;;;18.10;99.90;;;;;;5073914;28;20171;-87
2022/10/26 13:11:37;;;;;;;3.97;2.90;;;18.10;99.90;;;;;;5056066;28;20252;-86
2022/10/26 13:14:07;;;;;;;3.40;3.10;;;18.20;99.90;;;;;;5074068;28;20543;-84
2022/10/26 13:16:34;;;;;;;3.93;3.30;;;18.20;99.90;;;;;;5073248;28;20245;-85